sensor_id;sensor_type;location;lat;lon;timestamp;temperature;humidity
6627;DHT22;3349;49.830;8.748;2023-04-01T00:01:27;10.00;88.00
6627;DHT22;3349;49.830;8.748;2023-04-01T00:03:54;10.00;88.80
6627;DHT22;3349;49.830;8.748;2023-04-01T00:06:22;10.00;90.00
6627;DHT22;3349;49.830;8.748;2023-04-01T00:08:49;10.00;89.40
6627;DHT22;3349;49.830;8.748;2023-04-01T00:11:16;10.00;89.40
6627;DHT22;3349;49.830;8.748;2023-04-01T00:13:44;10.00;88.40
6627;DHT22;3349;49.830;8.748;2023-04-01T00:16:12;10.00;88.50
6627;DHT22;3349;49.830;8.748;2023-04-01T00:18:39;10.00;87.60
6627;DHT22;3349;49.830;8.748;2023-04-01T00:21:06;10.00;87.70
6627;DHT22;3349;49.830;8.748;2023-04-01T00:23:33;10.00;88.50
6627;DHT22;3349;49.830;8.748;2023-04-01T00:26:01;10.00;87.60
6627;DHT22;3349;49.830;8.748;2023-04-01T00:28:28;10.00;87.10
6627;DHT22;3349;49.830;8.748;2023-04-01T00:30:55;9.90;88.10
6627;DHT22;3349;49.830;8.748;2023-04-01T00:33:23;9.90;89.00
6627;DHT22;3349;49.830;8.748;2023-04-01T00:35:50;9.90;88.90
6627;DHT22;3349;49.830;8.748;2023-04-01T00:38:16;9.80;90.10
6627;DHT22;3349;49.830;8.748;2023-04-01T00:40:46;9.80;88.90
6627;DHT22;3349;49.830;8.748;2023-04-01T00:43:15;9.80;89.30
6627;DHT22;3349;49.830;8.748;2023-04-01T00:45:44;9.80;88.30
6627;DHT22;3349;49.830;8.748;2023-04-01T00:48:14;9.80;87.90
6627;DHT22;3349;49.830;8.748;2023-04-01T00:50:44;9.90;88.60
6627;DHT22;3349;49.830;8.748;2023-04-01T00:53:12;9.90;88.20
6627;DHT22;3349;49.830;8.748;2023-04-01T00:55:43;9.90;88.10
6627;DHT22;3349;49.830;8.748;2023-04-01T00:58:15;9.90;87.20
6627;DHT22;3349;49.830;8.748;2023-04-01T01:00:43;9.90;86.90
6627;DHT22;3349;49.830;8.748;2023-04-01T01:03:11;9.90;87.00
6627;DHT22;3349;49.830;8.748;2023-04-01T01:06:06;9.90;85.70
6627;DHT22;3349;49.830;8.748;2023-04-01T01:08:44;10.00;85.70
6627;DHT22;3349;49.830;8.748;2023-04-01T01:11:14;10.00;84.20
6627;DHT22;3349;49.830;8.748;2023-04-01T01:13:51;10.00;83.50
6627;DHT22;3349;49.830;8.748;2023-04-01T01:16:26;10.00;83.90
6627;DHT22;3349;49.830;8.748;2023-04-01T01:18:56;10.00;83.60
6627;DHT22;3349;49.830;8.748;2023-04-01T01:21:55;10.00;84.20
6627;DHT22;3349;49.830;8.748;2023-04-01T01:24:40;10.00;84.50
6627;DHT22;3349;49.830;8.748;2023-04-01T01:27:10;9.90;84.70
6627;DHT22;3349;49.830;8.748;2023-04-01T01:29:57;9.90;84.70
6627;DHT22;3349;49.830;8.748;2023-04-01T01:32:40;9.90;85.20
6627;DHT22;3349;49.830;8.748;2023-04-01T01:35:15;9.90;85.20
6627;DHT22;3349;49.830;8.748;2023-04-01T01:37:44;9.90;85.00
6627;DHT22;3349;49.830;8.748;2023-04-01T01:40:13;10.00;82.80
6627;DHT22;3349;49.830;8.748;2023-04-01T01:42:46;10.00;83.50
6627;DHT22;3349;49.830;8.748;2023-04-01T01:45:16;10.00;83.40
6627;DHT22;3349;49.830;8.748;2023-04-01T01:47:45;10.00;82.80
6627;DHT22;3349;49.830;8.748;2023-04-01T01:50:14;10.10;82.20
6627;DHT22;3349;49.830;8.748;2023-04-01T01:52:41;10.00;82.70
6627;DHT22;3349;49.830;8.748;2023-04-01T01:55:24;10.00;82.20
6627;DHT22;3349;49.830;8.748;2023-04-01T01:57:52;10.00;82.50
6627;DHT22;3349;49.830;8.748;2023-04-01T02:00:20;10.00;83.30
6627;DHT22;3349;49.830;8.748;2023-04-01T02:02:48;10.00;83.60
6627;DHT22;3349;49.830;8.748;2023-04-01T02:05:20;10.00;82.90
6627;DHT22;3349;49.830;8.748;2023-04-01T02:07:54;10.00;83.20
6627;DHT22;3349;49.830;8.748;2023-04-01T02:10:25;10.00;83.10
6627;DHT22;3349;49.830;8.748;2023-04-01T02:12:57;10.00;83.80
6627;DHT22;3349;49.830;8.748;2023-04-01T02:15:26;10.00;83.80
6627;DHT22;3349;49.830;8.748;2023-04-01T02:17:56;9.90;86.20
6627;DHT22;3349;49.830;8.748;2023-04-01T02:20:25;9.90;86.10
6627;DHT22;3349;49.830;8.748;2023-04-01T02:22:56;9.90;86.10
6627;DHT22;3349;49.830;8.748;2023-04-01T02:25:27;9.90;85.70
6627;DHT22;3349;49.830;8.748;2023-04-01T02:27:55;9.90;85.10
6627;DHT22;3349;49.830;8.748;2023-04-01T02:30:23;9.90;86.10
6627;DHT22;3349;49.830;8.748;2023-04-01T02:32:52;9.90;86.40
6627;DHT22;3349;49.830;8.748;2023-04-01T02:35:19;9.90;85.30
6627;DHT22;3349;49.830;8.748;2023-04-01T02:37:49;9.90;86.20
6627;DHT22;3349;49.830;8.748;2023-04-01T02:40:17;9.90;86.60
6627;DHT22;3349;49.830;8.748;2023-04-01T02:42:44;9.90;86.20
6627;DHT22;3349;49.830;8.748;2023-04-01T02:45:12;9.90;86.70
6627;DHT22;3349;49.830;8.748;2023-04-01T02:47:39;9.90;87.20
6627;DHT22;3349;49.830;8.748;2023-04-01T02:50:07;9.90;85.60
6627;DHT22;3349;49.830;8.748;2023-04-01T02:52:33;9.90;84.70
6627;DHT22;3349;49.830;8.748;2023-04-01T02:55:02;9.90;85.90
6627;DHT22;3349;49.830;8.748;2023-04-01T02:57:30;9.90;86.00
6627;DHT22;3349;49.830;8.748;2023-04-01T02:59:56;9.90;86.10
6627;DHT22;3349;49.830;8.748;2023-04-01T03:02:23;9.90;85.90
6627;DHT22;3349;49.830;8.748;2023-04-01T03:04:50;9.90;85.90
6627;DHT22;3349;49.830;8.748;2023-04-01T03:07:16;9.90;86.10
6627;DHT22;3349;49.830;8.748;2023-04-01T03:09:43;9.90;87.20
6627;DHT22;3349;49.830;8.748;2023-04-01T03:12:11;9.80;87.20
6627;DHT22;3349;49.830;8.748;2023-04-01T03:14:38;9.80;86.80
6627;DHT22;3349;49.830;8.748;2023-04-01T03:17:04;9.70;87.90
6627;DHT22;3349;49.830;8.748;2023-04-01T03:19:32;9.70;88.20
6627;DHT22;3349;49.830;8.748;2023-04-01T03:21:58;9.70;88.80
6627;DHT22;3349;49.830;8.748;2023-04-01T03:24:25;9.70;90.10
6627;DHT22;3349;49.830;8.748;2023-04-01T03:26:52;9.70;89.20
6627;DHT22;3349;49.830;8.748;2023-04-01T03:29:19;9.70;90.20
6627;DHT22;3349;49.830;8.748;2023-04-01T03:31:47;9.70;90.50
6627;DHT22;3349;49.830;8.748;2023-04-01T03:34:13;9.70;90.90
6627;DHT22;3349;49.830;8.748;2023-04-01T03:36:40;9.60;90.80
6627;DHT22;3349;49.830;8.748;2023-04-01T03:39:07;9.60;90.90
6627;DHT22;3349;49.830;8.748;2023-04-01T03:41:36;9.70;91.10
6627;DHT22;3349;49.830;8.748;2023-04-01T03:44:03;9.60;91.00
6627;DHT22;3349;49.830;8.748;2023-04-01T03:46:31;9.60;90.90
6627;DHT22;3349;49.830;8.748;2023-04-01T03:48:58;9.60;91.10
6627;DHT22;3349;49.830;8.748;2023-04-01T03:51:25;9.60;90.50
6627;DHT22;3349;49.830;8.748;2023-04-01T03:53:51;9.60;90.60
6627;DHT22;3349;49.830;8.748;2023-04-01T03:56:18;9.60;90.80
6627;DHT22;3349;49.830;8.748;2023-04-01T03:58:45;9.70;90.30
6627;DHT22;3349;49.830;8.748;2023-04-01T04:01:17;9.70;90.20
6627;DHT22;3349;49.830;8.748;2023-04-01T04:03:45;9.70;90.80
6627;DHT22;3349;49.830;8.748;2023-04-01T04:06:12;9.70;90.10
6627;DHT22;3349;49.830;8.748;2023-04-01T04:08:39;9.70;90.00
6627;DHT22;3349;49.830;8.748;2023-04-01T04:11:06;9.70;87.90
6627;DHT22;3349;49.830;8.748;2023-04-01T04:13:33;9.80;88.30
6627;DHT22;3349;49.830;8.748;2023-04-01T04:15:59;9.80;88.90
6627;DHT22;3349;49.830;8.748;2023-04-01T04:18:26;9.70;88.50
6627;DHT22;3349;49.830;8.748;2023-04-01T04:20:54;9.70;88.30
6627;DHT22;3349;49.830;8.748;2023-04-01T04:23:21;9.80;87.70
6627;DHT22;3349;49.830;8.748;2023-04-01T04:25:55;9.70;87.90
6627;DHT22;3349;49.830;8.748;2023-04-01T04:28:22;9.80;88.00
6627;DHT22;3349;49.830;8.748;2023-04-01T04:30:49;9.80;87.90
6627;DHT22;3349;49.830;8.748;2023-04-01T04:33:16;9.70;87.90
6627;DHT22;3349;49.830;8.748;2023-04-01T04:35:43;9.70;87.50
6627;DHT22;3349;49.830;8.748;2023-04-01T04:38:11;9.70;87.80
6627;DHT22;3349;49.830;8.748;2023-04-01T04:40:38;9.80;88.00
6627;DHT22;3349;49.830;8.748;2023-04-01T04:43:05;9.80;88.00
6627;DHT22;3349;49.830;8.748;2023-04-01T04:45:31;9.80;88.00
6627;DHT22;3349;49.830;8.748;2023-04-01T04:47:58;9.80;87.40
6627;DHT22;3349;49.830;8.748;2023-04-01T04:50:25;9.80;88.50
6627;DHT22;3349;49.830;8.748;2023-04-01T04:52:51;9.80;88.00
6627;DHT22;3349;49.830;8.748;2023-04-01T04:55:20;9.70;88.20
6627;DHT22;3349;49.830;8.748;2023-04-01T04:57:47;9.70;87.90
6627;DHT22;3349;49.830;8.748;2023-04-01T05:00:14;9.70;88.20
6627;DHT22;3349;49.830;8.748;2023-04-01T05:02:41;9.70;88.60
6627;DHT22;3349;49.830;8.748;2023-04-01T05:05:08;9.70;87.90
6627;DHT22;3349;49.830;8.748;2023-04-01T05:07:36;9.70;89.10
6627;DHT22;3349;49.830;8.748;2023-04-01T05:10:03;9.80;88.90
6627;DHT22;3349;49.830;8.748;2023-04-01T05:12:31;9.80;88.00
6627;DHT22;3349;49.830;8.748;2023-04-01T05:15:02;9.80;88.00
6627;DHT22;3349;49.830;8.748;2023-04-01T05:17:29;9.80;88.10
6627;DHT22;3349;49.830;8.748;2023-04-01T05:19:56;9.80;88.20
6627;DHT22;3349;49.830;8.748;2023-04-01T05:22:23;9.80;88.80
6627;DHT22;3349;49.830;8.748;2023-04-01T05:24:50;9.80;88.10
6627;DHT22;3349;49.830;8.748;2023-04-01T05:27:16;9.70;89.00
6627;DHT22;3349;49.830;8.748;2023-04-01T05:29:44;9.70;88.90
6627;DHT22;3349;49.830;8.748;2023-04-01T05:32:11;9.70;88.90
6627;DHT22;3349;49.830;8.748;2023-04-01T05:34:38;9.80;89.70
6627;DHT22;3349;49.830;8.748;2023-04-01T05:37:05;9.80;89.30
6627;DHT22;3349;49.830;8.748;2023-04-01T05:39:35;9.80;88.50
6627;DHT22;3349;49.830;8.748;2023-04-01T05:42:02;9.80;88.60
6627;DHT22;3349;49.830;8.748;2023-04-01T05:44:29;9.80;88.00
6627;DHT22;3349;49.830;8.748;2023-04-01T05:46:58;9.80;88.00
6627;DHT22;3349;49.830;8.748;2023-04-01T05:49:25;9.80;88.00
6627;DHT22;3349;49.830;8.748;2023-04-01T05:51:51;9.80;88.00
6627;DHT22;3349;49.830;8.748;2023-04-01T05:54:18;9.80;88.00
6627;DHT22;3349;49.830;8.748;2023-04-01T05:56:45;9.80;88.00
6627;DHT22;3349;49.830;8.748;2023-04-01T05:59:13;9.80;88.80
6627;DHT22;3349;49.830;8.748;2023-04-01T06:01:40;9.80;88.10
6627;DHT22;3349;49.830;8.748;2023-04-01T06:04:11;9.80;88.40
6627;DHT22;3349;49.830;8.748;2023-04-01T06:06:39;9.80;88.00
6627;DHT22;3349;49.830;8.748;2023-04-01T06:09:13;9.80;88.00
6627;DHT22;3349;49.830;8.748;2023-04-01T06:11:53;9.80;88.00
6627;DHT22;3349;49.830;8.748;2023-04-01T06:14:28;9.80;89.00
6627;DHT22;3349;49.830;8.748;2023-04-01T06:17:06;9.90;90.10
6627;DHT22;3349;49.830;8.748;2023-04-01T06:19:41;9.80;90.30
6627;DHT22;3349;49.830;8.748;2023-04-01T06:22:38;9.80;91.40
6627;DHT22;3349;49.830;8.748;2023-04-01T06:25:22;9.80;90.30
6627;DHT22;3349;49.830;8.748;2023-04-01T06:28:05;9.80;90.40
6627;DHT22;3349;49.830;8.748;2023-04-01T06:30:39;9.80;91.40
6627;DHT22;3349;49.830;8.748;2023-04-01T06:33:19;9.70;92.90
6627;DHT22;3349;49.830;8.748;2023-04-01T06:36:00;9.60;93.80
6627;DHT22;3349;49.830;8.748;2023-04-01T06:38:41;9.60;95.40
6627;DHT22;3349;49.830;8.748;2023-04-01T06:44:12;9.50;95.80
6627;DHT22;3349;49.830;8.748;2023-04-01T06:46:45;9.50;94.80
6627;DHT22;3349;49.830;8.748;2023-04-01T06:49:25;9.50;94.70
6627;DHT22;3349;49.830;8.748;2023-04-01T06:52:01;9.50;96.40
6627;DHT22;3349;49.830;8.748;2023-04-01T06:54:31;9.50;96.50
6627;DHT22;3349;49.830;8.748;2023-04-01T06:57:02;9.50;96.00
6627;DHT22;3349;49.830;8.748;2023-04-01T06:59:32;9.50;95.80
6627;DHT22;3349;49.830;8.748;2023-04-01T07:02:05;9.40;97.30
6627;DHT22;3349;49.830;8.748;2023-04-01T07:04:41;9.30;97.40
6627;DHT22;3349;49.830;8.748;2023-04-01T07:07:15;9.30;98.60
6627;DHT22;3349;49.830;8.748;2023-04-01T07:09:48;9.30;98.80
6627;DHT22;3349;49.830;8.748;2023-04-01T07:12:21;9.20;99.00
6627;DHT22;3349;49.830;8.748;2023-04-01T07:14:53;9.20;99.70
6627;DHT22;3349;49.830;8.748;2023-04-01T07:17:23;9.20;98.90
6627;DHT22;3349;49.830;8.748;2023-04-01T07:19:57;9.20;99.10
6627;DHT22;3349;49.830;8.748;2023-04-01T07:22:31;9.20;99.90
6627;DHT22;3349;49.830;8.748;2023-04-01T07:25:02;9.20;99.90
6627;DHT22;3349;49.830;8.748;2023-04-01T07:27:31;9.10;99.90
6627;DHT22;3349;49.830;8.748;2023-04-01T07:29:58;9.10;99.90
6627;DHT22;3349;49.830;8.748;2023-04-01T07:32:33;9.20;99.90
6627;DHT22;3349;49.830;8.748;2023-04-01T07:35:17;9.20;99.90
6627;DHT22;3349;49.830;8.748;2023-04-01T07:38:00;9.30;99.90
6627;DHT22;3349;49.830;8.748;2023-04-01T07:40:35;9.30;99.90
6627;DHT22;3349;49.830;8.748;2023-04-01T07:43:15;9.30;99.90
6627;DHT22;3349;49.830;8.748;2023-04-01T07:45:48;9.40;99.90
6627;DHT22;3349;49.830;8.748;2023-04-01T07:48:24;9.40;99.90
6627;DHT22;3349;49.830;8.748;2023-04-01T07:50:56;9.40;99.90
6627;DHT22;3349;49.830;8.748;2023-04-01T07:53:31;9.50;99.90
6627;DHT22;3349;49.830;8.748;2023-04-01T07:56:06;9.50;99.90
6627;DHT22;3349;49.830;8.748;2023-04-01T07:58:42;9.60;99.90
6627;DHT22;3349;49.830;8.748;2023-04-01T08:01:16;9.60;99.90
6627;DHT22;3349;49.830;8.748;2023-04-01T08:04:06;9.70;99.90
6627;DHT22;3349;49.830;8.748;2023-04-01T08:06:44;9.70;99.90
6627;DHT22;3349;49.830;8.748;2023-04-01T08:09:22;9.70;99.90
6627;DHT22;3349;49.830;8.748;2023-04-01T08:12:03;9.80;99.90
6627;DHT22;3349;49.830;8.748;2023-04-01T08:14:39;9.90;99.90
6627;DHT22;3349;49.830;8.748;2023-04-01T08:17:15;9.90;99.90
6627;DHT22;3349;49.830;8.748;2023-04-01T08:19:56;10.10;97.70
6627;DHT22;3349;49.830;8.748;2023-04-01T08:22:27;10.10;96.70
6627;DHT22;3349;49.830;8.748;2023-04-01T08:25:00;10.10;96.30
6627;DHT22;3349;49.830;8.748;2023-04-01T08:27:34;10.10;97.50
6627;DHT22;3349;49.830;8.748;2023-04-01T08:30:06;10.10;94.70
6627;DHT22;3349;49.830;8.748;2023-04-01T08:32:43;10.00;96.90
6627;DHT22;3349;49.830;8.748;2023-04-01T08:35:24;10.00;97.20
6627;DHT22;3349;49.830;8.748;2023-04-01T08:37:53;10.00;97.90
6627;DHT22;3349;49.830;8.748;2023-04-01T08:40:50;9.90;97.90
6627;DHT22;3349;49.830;8.748;2023-04-01T08:43:34;9.80;99.90
6627;DHT22;3349;49.830;8.748;2023-04-01T08:46:15;9.80;99.90
6627;DHT22;3349;49.830;8.748;2023-04-01T08:49:00;9.70;99.90
6627;DHT22;3349;49.830;8.748;2023-04-01T08:51:52;9.70;99.90
6627;DHT22;3349;49.830;8.748;2023-04-01T08:54:44;9.60;99.90
6627;DHT22;3349;49.830;8.748;2023-04-01T08:57:21;9.60;99.90
6627;DHT22;3349;49.830;8.748;2023-04-01T09:00:11;9.60;99.90
6627;DHT22;3349;49.830;8.748;2023-04-01T09:08:52;9.60;99.90
6627;DHT22;3349;49.830;8.748;2023-04-01T09:11:28;9.60;99.90
6627;DHT22;3349;49.830;8.748;2023-04-01T09:14:22;9.50;99.90
6627;DHT22;3349;49.830;8.748;2023-04-01T09:17:07;9.50;99.90
6627;DHT22;3349;49.830;8.748;2023-04-01T09:19:53;9.50;99.90
6627;DHT22;3349;49.830;8.748;2023-04-01T09:22:51;9.50;99.90
6627;DHT22;3349;49.830;8.748;2023-04-01T09:25:30;9.50;99.90
6627;DHT22;3349;49.830;8.748;2023-04-01T09:28:07;9.60;99.90
6627;DHT22;3349;49.830;8.748;2023-04-01T09:30:54;9.70;99.90
6627;DHT22;3349;49.830;8.748;2023-04-01T09:36:44;9.70;99.90
6627;DHT22;3349;49.830;8.748;2023-04-01T09:39:36;9.70;99.90
6627;DHT22;3349;49.830;8.748;2023-04-01T09:42:15;9.70;99.90
6627;DHT22;3349;49.830;8.748;2023-04-01T09:44:48;9.70;99.90
6627;DHT22;3349;49.830;8.748;2023-04-01T09:47:34;9.70;99.90
6627;DHT22;3349;49.830;8.748;2023-04-01T09:50:29;9.70;99.90
6627;DHT22;3349;49.830;8.748;2023-04-01T09:53:09;9.70;99.90
6627;DHT22;3349;49.830;8.748;2023-04-01T09:56:18;9.70;99.90
6627;DHT22;3349;49.830;8.748;2023-04-01T09:59:08;9.70;99.90
6627;DHT22;3349;49.830;8.748;2023-04-01T10:11:15;9.60;99.90
6627;DHT22;3349;49.830;8.748;2023-04-01T10:14:19;9.60;99.90
6627;DHT22;3349;49.830;8.748;2023-04-01T10:17:29;9.60;99.90
6627;DHT22;3349;49.830;8.748;2023-04-01T10:23:32;9.50;99.90
6627;DHT22;3349;49.830;8.748;2023-04-01T10:26:28;9.60;99.90
6627;DHT22;3349;49.830;8.748;2023-04-01T10:29:25;9.70;99.90
6627;DHT22;3349;49.830;8.748;2023-04-01T10:35:28;9.80;99.90
6627;DHT22;3349;49.830;8.748;2023-04-01T10:47:38;10.10;99.90
6627;DHT22;3349;49.830;8.748;2023-04-01T10:50:29;10.10;99.90
6627;DHT22;3349;49.830;8.748;2023-04-01T10:56:39;10.10;99.90
6627;DHT22;3349;49.830;8.748;2023-04-01T10:59:32;10.20;99.90
6627;DHT22;3349;49.830;8.748;2023-04-01T11:02:29;10.20;99.90
6627;DHT22;3349;49.830;8.748;2023-04-01T11:08:49;10.20;99.90
6627;DHT22;3349;49.830;8.748;2023-04-01T11:26:44;10.20;99.90
6627;DHT22;3349;49.830;8.748;2023-04-01T11:32:27;10.20;99.90
6627;DHT22;3349;49.830;8.748;2023-04-01T11:35:09;10.10;99.90
6627;DHT22;3349;49.830;8.748;2023-04-01T11:37:46;10.10;99.90
6627;DHT22;3349;49.830;8.748;2023-04-01T11:40:22;10.20;99.90
6627;DHT22;3349;49.830;8.748;2023-04-01T11:42:58;10.10;99.90
6627;DHT22;3349;49.830;8.748;2023-04-01T11:45:35;10.10;99.90
6627;DHT22;3349;49.830;8.748;2023-04-01T11:51:40;10.10;99.90
6627;DHT22;3349;49.830;8.748;2023-04-01T11:54:19;10.00;99.90
6627;DHT22;3349;49.830;8.748;2023-04-01T11:56:59;10.10;99.90
6627;DHT22;3349;49.830;8.748;2023-04-01T11:59:52;10.10;99.90
6627;DHT22;3349;49.830;8.748;2023-04-01T12:02:29;10.10;99.90
6627;DHT22;3349;49.830;8.748;2023-04-01T12:05:24;10.20;99.90
6627;DHT22;3349;49.830;8.748;2023-04-01T12:08:04;10.20;99.90
6627;DHT22;3349;49.830;8.748;2023-04-01T12:10:39;10.10;99.90
6627;DHT22;3349;49.830;8.748;2023-04-01T12:13:15;10.00;99.90
6627;DHT22;3349;49.830;8.748;2023-04-01T12:15:58;10.00;99.90
6627;DHT22;3349;49.830;8.748;2023-04-01T12:18:34;9.90;99.90
6627;DHT22;3349;49.830;8.748;2023-04-01T12:21:14;10.00;99.90
6627;DHT22;3349;49.830;8.748;2023-04-01T12:24:01;9.90;99.90
6627;DHT22;3349;49.830;8.748;2023-04-01T12:26:59;10.00;99.90
6627;DHT22;3349;49.830;8.748;2023-04-01T12:29:43;10.20;99.90
6627;DHT22;3349;49.830;8.748;2023-04-01T12:32:20;10.30;99.90
6627;DHT22;3349;49.830;8.748;2023-04-01T12:34:58;10.30;99.90
6627;DHT22;3349;49.830;8.748;2023-04-01T12:37:34;10.30;99.90
6627;DHT22;3349;49.830;8.748;2023-04-01T12:40:22;10.40;99.90
6627;DHT22;3349;49.830;8.748;2023-04-01T12:43:03;10.40;99.90
6627;DHT22;3349;49.830;8.748;2023-04-01T12:45:33;10.40;99.90
6627;DHT22;3349;49.830;8.748;2023-04-01T12:48:22;10.50;99.90
6627;DHT22;3349;49.830;8.748;2023-04-01T12:53:58;10.40;99.90
6627;DHT22;3349;49.830;8.748;2023-04-01T12:56:41;10.40;99.90
6627;DHT22;3349;49.830;8.748;2023-04-01T12:59:26;10.40;99.90
6627;DHT22;3349;49.830;8.748;2023-04-01T13:02:01;10.50;99.90
6627;DHT22;3349;49.830;8.748;2023-04-01T13:04:50;10.50;99.90
6627;DHT22;3349;49.830;8.748;2023-04-01T13:07:47;10.50;99.90
6627;DHT22;3349;49.830;8.748;2023-04-01T13:10:27;10.50;99.90
6627;DHT22;3349;49.830;8.748;2023-04-01T13:15:49;10.50;99.90
6627;DHT22;3349;49.830;8.748;2023-04-01T13:18:25;10.40;99.90
6627;DHT22;3349;49.830;8.748;2023-04-01T13:21:04;10.40;99.90
6627;DHT22;3349;49.830;8.748;2023-04-01T13:23:39;10.30;99.90
6627;DHT22;3349;49.830;8.748;2023-04-01T13:26:18;10.30;99.90
6627;DHT22;3349;49.830;8.748;2023-04-01T13:28:53;10.20;99.90
6627;DHT22;3349;49.830;8.748;2023-04-01T13:31:50;10.20;99.90
6627;DHT22;3349;49.830;8.748;2023-04-01T13:34:37;10.10;99.90
6627;DHT22;3349;49.830;8.748;2023-04-01T13:37:25;10.10;99.90
6627;DHT22;3349;49.830;8.748;2023-04-01T13:40:04;10.10;99.90
6627;DHT22;3349;49.830;8.748;2023-04-01T13:42:41;10.10;99.90
6627;DHT22;3349;49.830;8.748;2023-04-01T13:45:16;10.20;99.90
6627;DHT22;3349;49.830;8.748;2023-04-01T13:50:58;10.20;99.90
6627;DHT22;3349;49.830;8.748;2023-04-01T13:53:44;10.20;99.90
6627;DHT22;3349;49.830;8.748;2023-04-01T13:56:19;10.20;99.90
6627;DHT22;3349;49.830;8.748;2023-04-01T13:59:10;10.20;99.90
6627;DHT22;3349;49.830;8.748;2023-04-01T14:01:49;10.30;99.90
6627;DHT22;3349;49.830;8.748;2023-04-01T14:04:34;10.30;99.90
6627;DHT22;3349;49.830;8.748;2023-04-01T14:07:32;10.40;99.90
6627;DHT22;3349;49.830;8.748;2023-04-01T14:10:07;10.30;99.90
6627;DHT22;3349;49.830;8.748;2023-04-01T14:12:42;10.30;99.90
6627;DHT22;3349;49.830;8.748;2023-04-01T14:15:25;10.40;99.90
6627;DHT22;3349;49.830;8.748;2023-04-01T14:18:10;10.50;99.90
6627;DHT22;3349;49.830;8.748;2023-04-01T14:20:40;10.50;99.90
6627;DHT22;3349;49.830;8.748;2023-04-01T14:23:42;10.60;99.90
6627;DHT22;3349;49.830;8.748;2023-04-01T14:26:27;10.50;99.90
6627;DHT22;3349;49.830;8.748;2023-04-01T14:29:02;10.50;99.90
6627;DHT22;3349;49.830;8.748;2023-04-01T14:31:42;10.50;99.90
6627;DHT22;3349;49.830;8.748;2023-04-01T14:34:21;10.50;99.90
6627;DHT22;3349;49.830;8.748;2023-04-01T14:36:57;10.50;99.90
6627;DHT22;3349;49.830;8.748;2023-04-01T14:39:38;10.50;99.90
6627;DHT22;3349;49.830;8.748;2023-04-01T14:42:23;10.50;99.90
6627;DHT22;3349;49.830;8.748;2023-04-01T14:45:16;10.50;99.90
6627;DHT22;3349;49.830;8.748;2023-04-01T14:47:50;10.50;99.90
6627;DHT22;3349;49.830;8.748;2023-04-01T14:50:22;10.60;99.90
6627;DHT22;3349;49.830;8.748;2023-04-01T14:52:57;10.60;99.90
6627;DHT22;3349;49.830;8.748;2023-04-01T14:55:32;10.70;99.90
6627;DHT22;3349;49.830;8.748;2023-04-01T14:58:11;10.70;99.90
6627;DHT22;3349;49.830;8.748;2023-04-01T15:00:47;10.70;99.90
6627;DHT22;3349;49.830;8.748;2023-04-01T15:03:20;10.70;99.90
6627;DHT22;3349;49.830;8.748;2023-04-01T15:05:55;10.70;99.90
6627;DHT22;3349;49.830;8.748;2023-04-01T15:08:23;10.70;99.90
6627;DHT22;3349;49.830;8.748;2023-04-01T15:11:18;10.70;99.90
6627;DHT22;3349;49.830;8.748;2023-04-01T15:14:08;10.70;99.90
6627;DHT22;3349;49.830;8.748;2023-04-01T15:16:44;10.70;99.90
6627;DHT22;3349;49.830;8.748;2023-04-01T15:19:20;10.70;99.90
6627;DHT22;3349;49.830;8.748;2023-04-01T15:22:30;10.70;99.90
6627;DHT22;3349;49.830;8.748;2023-04-01T15:25:13;10.70;99.90
6627;DHT22;3349;49.830;8.748;2023-04-01T15:27:51;10.70;99.90
6627;DHT22;3349;49.830;8.748;2023-04-01T15:30:29;10.70;99.90
6627;DHT22;3349;49.830;8.748;2023-04-01T15:33:06;10.70;99.90
6627;DHT22;3349;49.830;8.748;2023-04-01T15:35:41;10.70;99.90
6627;DHT22;3349;49.830;8.748;2023-04-01T15:38:23;10.60;99.90
6627;DHT22;3349;49.830;8.748;2023-04-01T15:40:55;10.70;99.90
6627;DHT22;3349;49.830;8.748;2023-04-01T15:43:36;10.70;99.90
6627;DHT22;3349;49.830;8.748;2023-04-01T15:46:41;10.80;99.90
6627;DHT22;3349;49.830;8.748;2023-04-01T15:49:20;10.90;99.90
6627;DHT22;3349;49.830;8.748;2023-04-01T15:51:58;10.90;99.90
6627;DHT22;3349;49.830;8.748;2023-04-01T15:54:48;10.80;99.90
6627;DHT22;3349;49.830;8.748;2023-04-01T15:57:25;10.80;99.90
6627;DHT22;3349;49.830;8.748;2023-04-01T16:00:06;10.80;99.90
6627;DHT22;3349;49.830;8.748;2023-04-01T16:02:43;10.80;99.90
6627;DHT22;3349;49.830;8.748;2023-04-01T16:05:27;10.80;99.90
6627;DHT22;3349;49.830;8.748;2023-04-01T16:08:09;10.80;99.90
6627;DHT22;3349;49.830;8.748;2023-04-01T16:10:48;10.80;99.90
6627;DHT22;3349;49.830;8.748;2023-04-01T16:13:28;10.80;99.90
6627;DHT22;3349;49.830;8.748;2023-04-01T16:16:07;10.80;99.90
6627;DHT22;3349;49.830;8.748;2023-04-01T16:18:52;10.80;99.90
6627;DHT22;3349;49.830;8.748;2023-04-01T16:21:33;10.70;99.90
6627;DHT22;3349;49.830;8.748;2023-04-01T16:24:10;10.70;99.90
6627;DHT22;3349;49.830;8.748;2023-04-01T16:26:47;10.70;99.90
6627;DHT22;3349;49.830;8.748;2023-04-01T16:29:24;10.70;99.90
6627;DHT22;3349;49.830;8.748;2023-04-01T16:31:58;10.60;99.90
6627;DHT22;3349;49.830;8.748;2023-04-01T16:34:31;10.60;99.90
6627;DHT22;3349;49.830;8.748;2023-04-01T16:37:05;10.60;99.90
6627;DHT22;3349;49.830;8.748;2023-04-01T16:39:36;10.60;99.90
6627;DHT22;3349;49.830;8.748;2023-04-01T16:42:20;10.60;99.90
6627;DHT22;3349;49.830;8.748;2023-04-01T16:44:52;10.60;99.90
6627;DHT22;3349;49.830;8.748;2023-04-01T16:47:22;10.60;99.90
6627;DHT22;3349;49.830;8.748;2023-04-01T16:49:58;10.50;99.90
6627;DHT22;3349;49.830;8.748;2023-04-01T16:52:43;10.50;99.90
6627;DHT22;3349;49.830;8.748;2023-04-01T16:55:16;10.50;99.90
6627;DHT22;3349;49.830;8.748;2023-04-01T16:57:50;10.50;99.90
6627;DHT22;3349;49.830;8.748;2023-04-01T17:00:24;10.50;99.90
6627;DHT22;3349;49.830;8.748;2023-04-01T17:02:59;10.50;99.90
6627;DHT22;3349;49.830;8.748;2023-04-01T17:05:39;10.50;99.90
6627;DHT22;3349;49.830;8.748;2023-04-01T17:08:17;10.50;99.50
6627;DHT22;3349;49.830;8.748;2023-04-01T17:10:53;10.50;99.00
6627;DHT22;3349;49.830;8.748;2023-04-01T17:13:35;10.50;99.90
6627;DHT22;3349;49.830;8.748;2023-04-01T17:16:30;10.50;98.70
6627;DHT22;3349;49.830;8.748;2023-04-01T17:19:10;10.50;98.50
6627;DHT22;3349;49.830;8.748;2023-04-01T17:21:49;10.50;98.60
6627;DHT22;3349;49.830;8.748;2023-04-01T17:24:28;10.50;99.30
6627;DHT22;3349;49.830;8.748;2023-04-01T17:27:03;10.50;98.90
6627;DHT22;3349;49.830;8.748;2023-04-01T17:29:45;10.50;98.40
6627;DHT22;3349;49.830;8.748;2023-04-01T17:32:24;10.50;98.40
6627;DHT22;3349;49.830;8.748;2023-04-01T17:35:00;10.50;98.70
6627;DHT22;3349;49.830;8.748;2023-04-01T17:37:40;10.40;97.90
6627;DHT22;3349;49.830;8.748;2023-04-01T17:40:32;10.50;97.50
6627;DHT22;3349;49.830;8.748;2023-04-01T17:43:08;10.40;97.10
6627;DHT22;3349;49.830;8.748;2023-04-01T17:45:44;10.40;96.40
6627;DHT22;3349;49.830;8.748;2023-04-01T17:48:21;10.50;96.40
6627;DHT22;3349;49.830;8.748;2023-04-01T17:51:09;10.40;96.40
6627;DHT22;3349;49.830;8.748;2023-04-01T17:53:43;10.40;97.40
6627;DHT22;3349;49.830;8.748;2023-04-01T17:56:18;10.40;98.30
6627;DHT22;3349;49.830;8.748;2023-04-01T17:58:55;10.30;98.50
6627;DHT22;3349;49.830;8.748;2023-04-01T18:01:34;10.30;98.50
6627;DHT22;3349;49.830;8.748;2023-04-01T18:04:26;10.30;98.50
6627;DHT22;3349;49.830;8.748;2023-04-01T18:07:18;10.30;99.30
6627;DHT22;3349;49.830;8.748;2023-04-01T18:09:57;10.30;99.40
6627;DHT22;3349;49.830;8.748;2023-04-01T18:12:32;10.30;99.20
6627;DHT22;3349;49.830;8.748;2023-04-01T18:15:19;10.30;98.90
6627;DHT22;3349;49.830;8.748;2023-04-01T18:18:01;10.30;99.40
6627;DHT22;3349;49.830;8.748;2023-04-01T18:20:37;10.20;99.20
6627;DHT22;3349;49.830;8.748;2023-04-01T18:23:19;10.20;99.80